sensor_id;sensor_type;location;lat;lon;timestamp;temperature;humidity
298;DHT22;133;49.626;9.680;2023-04-29T00:01:05;12.00;98.70
298;DHT22;133;49.626;9.680;2023-04-29T00:03:30;12.00;98.70
298;DHT22;133;49.626;9.680;2023-04-29T00:05:59;12.00;98.70
298;DHT22;133;49.626;9.680;2023-04-29T00:08:25;12.00;98.70
298;DHT22;133;49.626;9.680;2023-04-29T00:10:51;11.90;98.70
298;DHT22;133;49.626;9.680;2023-04-29T00:13:17;11.90;98.70
298;DHT22;133;49.626;9.680;2023-04-29T00:15:42;11.90;98.70
298;DHT22;133;49.626;9.680;2023-04-29T00:18:08;11.80;98.70
298;DHT22;133;49.626;9.680;2023-04-29T00:20:34;11.70;98.70
298;DHT22;133;49.626;9.680;2023-04-29T00:23:00;11.70;98.70
298;DHT22;133;49.626;9.680;2023-04-29T00:25:26;11.60;98.70
298;DHT22;133;49.626;9.680;2023-04-29T00:27:51;11.70;98.70
298;DHT22;133;49.626;9.680;2023-04-29T00:30:17;11.60;98.70
298;DHT22;133;49.626;9.680;2023-04-29T00:32:43;11.60;98.70
298;DHT22;133;49.626;9.680;2023-04-29T00:35:09;11.50;98.70
298;DHT22;133;49.626;9.680;2023-04-29T00:37:35;11.50;98.70
298;DHT22;133;49.626;9.680;2023-04-29T00:40:01;11.50;98.70
298;DHT22;133;49.626;9.680;2023-04-29T00:42:28;11.50;98.70
298;DHT22;133;49.626;9.680;2023-04-29T00:44:54;11.40;98.70
298;DHT22;133;49.626;9.680;2023-04-29T00:47:20;11.40;98.70
298;DHT22;133;49.626;9.680;2023-04-29T00:49:45;11.40;98.70
298;DHT22;133;49.626;9.680;2023-04-29T00:52:12;11.40;98.70
298;DHT22;133;49.626;9.680;2023-04-29T00:54:39;11.40;98.70
298;DHT22;133;49.626;9.680;2023-04-29T00:57:05;11.40;98.70
298;DHT22;133;49.626;9.680;2023-04-29T00:59:32;11.40;98.70
298;DHT22;133;49.626;9.680;2023-04-29T01:02:07;11.40;98.70
298;DHT22;133;49.626;9.680;2023-04-29T01:04:32;11.40;98.70
298;DHT22;133;49.626;9.680;2023-04-29T01:07:30;11.30;98.70
298;DHT22;133;49.626;9.680;2023-04-29T01:10:13;11.30;98.70
298;DHT22;133;49.626;9.680;2023-04-29T01:12:55;11.30;98.70
298;DHT22;133;49.626;9.680;2023-04-29T01:15:31;11.30;98.70
298;DHT22;133;49.626;9.680;2023-04-29T01:18:04;11.20;98.70
298;DHT22;133;49.626;9.680;2023-04-29T01:20:30;11.10;98.70
298;DHT22;133;49.626;9.680;2023-04-29T01:22:56;11.10;98.70
298;DHT22;133;49.626;9.680;2023-04-29T01:25:22;11.10;98.70
298;DHT22;133;49.626;9.680;2023-04-29T01:27:52;11.10;98.70
298;DHT22;133;49.626;9.680;2023-04-29T01:30:55;11.00;98.70
298;DHT22;133;49.626;9.680;2023-04-29T01:33:30;11.00;98.70
298;DHT22;133;49.626;9.680;2023-04-29T01:39:15;11.00;98.70
298;DHT22;133;49.626;9.680;2023-04-29T01:41:51;10.90;98.70
298;DHT22;133;49.626;9.680;2023-04-29T01:44:22;11.00;98.70
298;DHT22;133;49.626;9.680;2023-04-29T01:46:51;10.90;98.70
298;DHT22;133;49.626;9.680;2023-04-29T01:49:36;11.00;98.70
298;DHT22;133;49.626;9.680;2023-04-29T01:52:02;10.90;98.70
298;DHT22;133;49.626;9.680;2023-04-29T01:54:27;10.90;98.70
298;DHT22;133;49.626;9.680;2023-04-29T01:56:53;10.80;98.70
298;DHT22;133;49.626;9.680;2023-04-29T01:59:19;10.70;98.70
298;DHT22;133;49.626;9.680;2023-04-29T02:01:45;10.70;98.70
298;DHT22;133;49.626;9.680;2023-04-29T02:04:10;10.80;98.70
298;DHT22;133;49.626;9.680;2023-04-29T02:06:36;10.80;98.70
298;DHT22;133;49.626;9.680;2023-04-29T02:09:02;10.80;98.70
298;DHT22;133;49.626;9.680;2023-04-29T02:11:27;10.80;98.70
298;DHT22;133;49.626;9.680;2023-04-29T02:13:53;10.80;98.70
298;DHT22;133;49.626;9.680;2023-04-29T02:16:19;10.80;98.70
298;DHT22;133;49.626;9.680;2023-04-29T02:18:44;10.80;98.70
298;DHT22;133;49.626;9.680;2023-04-29T02:21:10;10.80;98.70
298;DHT22;133;49.626;9.680;2023-04-29T02:23:36;10.70;98.70
298;DHT22;133;49.626;9.680;2023-04-29T02:26:02;10.80;98.70
298;DHT22;133;49.626;9.680;2023-04-29T02:28:31;10.70;98.70
298;DHT22;133;49.626;9.680;2023-04-29T02:30:56;10.70;98.70
298;DHT22;133;49.626;9.680;2023-04-29T02:33:22;10.60;98.70
298;DHT22;133;49.626;9.680;2023-04-29T02:35:48;10.70;98.70
298;DHT22;133;49.626;9.680;2023-04-29T02:38:13;10.70;98.70
298;DHT22;133;49.626;9.680;2023-04-29T02:40:43;10.90;98.70
298;DHT22;133;49.626;9.680;2023-04-29T02:43:09;10.90;98.70
298;DHT22;133;49.626;9.680;2023-04-29T02:45:35;10.90;98.70
298;DHT22;133;49.626;9.680;2023-04-29T02:48:01;10.90;98.70
298;DHT22;133;49.626;9.680;2023-04-29T02:50:26;10.90;98.70
298;DHT22;133;49.626;9.680;2023-04-29T02:52:53;10.90;98.70
298;DHT22;133;49.626;9.680;2023-04-29T02:55:19;10.90;98.70
298;DHT22;133;49.626;9.680;2023-04-29T02:57:44;11.00;98.70
298;DHT22;133;49.626;9.680;2023-04-29T03:00:10;11.00;98.70
298;DHT22;133;49.626;9.680;2023-04-29T03:02:36;11.00;98.70
298;DHT22;133;49.626;9.680;2023-04-29T03:05:02;10.90;98.70
298;DHT22;133;49.626;9.680;2023-04-29T03:07:29;10.90;98.70
298;DHT22;133;49.626;9.680;2023-04-29T03:09:55;10.90;98.70
298;DHT22;133;49.626;9.680;2023-04-29T03:12:20;10.90;98.70
298;DHT22;133;49.626;9.680;2023-04-29T03:14:46;10.90;98.70
298;DHT22;133;49.626;9.680;2023-04-29T03:17:12;10.90;98.70
298;DHT22;133;49.626;9.680;2023-04-29T03:19:38;10.90;98.70
298;DHT22;133;49.626;9.680;2023-04-29T03:22:04;10.90;98.70
298;DHT22;133;49.626;9.680;2023-04-29T03:24:30;10.80;98.70
298;DHT22;133;49.626;9.680;2023-04-29T03:26:56;10.70;98.70
298;DHT22;133;49.626;9.680;2023-04-29T03:29:21;10.70;98.70
298;DHT22;133;49.626;9.680;2023-04-29T03:31:47;10.70;98.70
298;DHT22;133;49.626;9.680;2023-04-29T03:34:13;10.60;98.70
298;DHT22;133;49.626;9.680;2023-04-29T03:36:39;10.70;98.70
298;DHT22;133;49.626;9.680;2023-04-29T03:39:05;10.70;98.70
298;DHT22;133;49.626;9.680;2023-04-29T03:41:30;10.80;98.70
298;DHT22;133;49.626;9.680;2023-04-29T03:43:56;10.80;98.70
298;DHT22;133;49.626;9.680;2023-04-29T03:46:25;10.80;98.70
298;DHT22;133;49.626;9.680;2023-04-29T03:48:51;10.80;98.70
298;DHT22;133;49.626;9.680;2023-04-29T03:51:21;10.80;98.70
298;DHT22;133;49.626;9.680;2023-04-29T03:53:46;10.80;98.70
298;DHT22;133;49.626;9.680;2023-04-29T03:56:12;10.80;98.70
298;DHT22;133;49.626;9.680;2023-04-29T03:58:38;10.80;98.70
298;DHT22;133;49.626;9.680;2023-04-29T04:01:03;10.80;98.70
298;DHT22;133;49.626;9.680;2023-04-29T04:03:29;10.70;98.70
298;DHT22;133;49.626;9.680;2023-04-29T04:05:54;10.60;98.70
298;DHT22;133;49.626;9.680;2023-04-29T04:08:20;10.70;98.70
298;DHT22;133;49.626;9.680;2023-04-29T04:10:46;10.70;98.70
298;DHT22;133;49.626;9.680;2023-04-29T04:13:11;10.70;98.70
298;DHT22;133;49.626;9.680;2023-04-29T04:15:37;10.80;98.70
298;DHT22;133;49.626;9.680;2023-04-29T04:18:02;10.80;98.70
298;DHT22;133;49.626;9.680;2023-04-29T04:20:28;10.80;98.70
298;DHT22;133;49.626;9.680;2023-04-29T04:22:54;10.90;98.70
298;DHT22;133;49.626;9.680;2023-04-29T04:25:19;10.90;98.70
298;DHT22;133;49.626;9.680;2023-04-29T04:27:45;10.90;98.70
298;DHT22;133;49.626;9.680;2023-04-29T04:30:11;10.90;98.70
298;DHT22;133;49.626;9.680;2023-04-29T04:32:37;11.00;98.70
298;DHT22;133;49.626;9.680;2023-04-29T04:35:04;11.00;98.70
298;DHT22;133;49.626;9.680;2023-04-29T04:37:31;11.00;98.70
298;DHT22;133;49.626;9.680;2023-04-29T04:39:56;11.00;98.70
298;DHT22;133;49.626;9.680;2023-04-29T04:42:22;11.10;98.70
298;DHT22;133;49.626;9.680;2023-04-29T04:44:48;11.20;98.70
298;DHT22;133;49.626;9.680;2023-04-29T04:47:13;11.40;98.70
298;DHT22;133;49.626;9.680;2023-04-29T04:49:39;11.40;98.70
298;DHT22;133;49.626;9.680;2023-04-29T04:52:04;11.50;98.70
298;DHT22;133;49.626;9.680;2023-04-29T04:54:31;11.50;98.70
298;DHT22;133;49.626;9.680;2023-04-29T04:56:56;11.50;98.70
298;DHT22;133;49.626;9.680;2023-04-29T04:59:22;11.60;98.70
298;DHT22;133;49.626;9.680;2023-04-29T05:01:47;11.60;98.70
298;DHT22;133;49.626;9.680;2023-04-29T05:04:13;11.70;98.70
298;DHT22;133;49.626;9.680;2023-04-29T05:06:39;11.80;98.70
298;DHT22;133;49.626;9.680;2023-04-29T05:09:05;11.80;98.70
298;DHT22;133;49.626;9.680;2023-04-29T05:11:31;11.90;98.70
298;DHT22;133;49.626;9.680;2023-04-29T05:13:56;12.00;98.70
298;DHT22;133;49.626;9.680;2023-04-29T05:16:22;12.00;98.70
298;DHT22;133;49.626;9.680;2023-04-29T05:18:48;12.00;98.70
298;DHT22;133;49.626;9.680;2023-04-29T05:21:13;12.10;98.70
298;DHT22;133;49.626;9.680;2023-04-29T05:23:39;12.10;98.70
298;DHT22;133;49.626;9.680;2023-04-29T05:26:05;12.20;98.70
298;DHT22;133;49.626;9.680;2023-04-29T05:28:30;12.20;98.70
298;DHT22;133;49.626;9.680;2023-04-29T05:30:56;12.20;98.50
298;DHT22;133;49.626;9.680;2023-04-29T05:33:21;12.20;98.50
298;DHT22;133;49.626;9.680;2023-04-29T05:35:47;12.20;98.70
298;DHT22;133;49.626;9.680;2023-04-29T05:38:13;12.20;98.70
298;DHT22;133;49.626;9.680;2023-04-29T05:40:38;12.30;98.70
298;DHT22;133;49.626;9.680;2023-04-29T05:43:04;12.30;98.70
298;DHT22;133;49.626;9.680;2023-04-29T05:45:30;12.40;98.70
298;DHT22;133;49.626;9.680;2023-04-29T05:47:56;12.40;98.70
298;DHT22;133;49.626;9.680;2023-04-29T05:50:21;12.50;98.70
298;DHT22;133;49.626;9.680;2023-04-29T05:52:47;12.50;98.70
298;DHT22;133;49.626;9.680;2023-04-29T05:55:13;12.60;98.70
298;DHT22;133;49.626;9.680;2023-04-29T05:57:38;12.70;98.60
298;DHT22;133;49.626;9.680;2023-04-29T06:00:05;12.80;98.50
298;DHT22;133;49.626;9.680;2023-04-29T06:02:31;12.80;98.40
298;DHT22;133;49.626;9.680;2023-04-29T06:05:00;12.90;98.20
298;DHT22;133;49.626;9.680;2023-04-29T06:07:26;12.90;98.00
298;DHT22;133;49.626;9.680;2023-04-29T06:09:52;13.00;98.10
298;DHT22;133;49.626;9.680;2023-04-29T06:12:17;13.00;97.90
298;DHT22;133;49.626;9.680;2023-04-29T06:14:43;13.10;97.70
298;DHT22;133;49.626;9.680;2023-04-29T06:17:10;13.10;97.40
298;DHT22;133;49.626;9.680;2023-04-29T06:19:36;13.00;97.40
298;DHT22;133;49.626;9.680;2023-04-29T06:22:02;13.00;97.40
298;DHT22;133;49.626;9.680;2023-04-29T06:24:27;13.10;97.00
298;DHT22;133;49.626;9.680;2023-04-29T06:26:53;13.20;96.50
298;DHT22;133;49.626;9.680;2023-04-29T06:29:19;13.20;95.90
298;DHT22;133;49.626;9.680;2023-04-29T06:31:47;13.20;96.40
298;DHT22;133;49.626;9.680;2023-04-29T06:34:14;13.20;96.70
298;DHT22;133;49.626;9.680;2023-04-29T06:36:39;13.20;96.80
298;DHT22;133;49.626;9.680;2023-04-29T06:39:06;13.30;96.90
298;DHT22;133;49.626;9.680;2023-04-29T06:41:31;13.30;96.80
298;DHT22;133;49.626;9.680;2023-04-29T06:43:59;13.30;96.70
298;DHT22;133;49.626;9.680;2023-04-29T06:46:24;13.30;96.80
298;DHT22;133;49.626;9.680;2023-04-29T06:48:50;13.30;96.90
298;DHT22;133;49.626;9.680;2023-04-29T06:51:16;13.30;96.20
298;DHT22;133;49.626;9.680;2023-04-29T06:53:42;13.40;95.80
298;DHT22;133;49.626;9.680;2023-04-29T06:56:08;13.50;96.00
298;DHT22;133;49.626;9.680;2023-04-29T06:58:33;13.50;95.80
298;DHT22;133;49.626;9.680;2023-04-29T07:00:59;13.60;95.80
298;DHT22;133;49.626;9.680;2023-04-29T07:03:24;13.70;95.50
298;DHT22;133;49.626;9.680;2023-04-29T07:05:50;13.60;95.20
298;DHT22;133;49.626;9.680;2023-04-29T07:08:16;13.50;95.00
298;DHT22;133;49.626;9.680;2023-04-29T07:10:41;13.30;95.10
298;DHT22;133;49.626;9.680;2023-04-29T07:13:07;13.40;95.60
298;DHT22;133;49.626;9.680;2023-04-29T07:15:33;13.50;95.30
298;DHT22;133;49.626;9.680;2023-04-29T07:17:59;13.60;95.10
298;DHT22;133;49.626;9.680;2023-04-29T07:20:25;13.80;94.90
298;DHT22;133;49.626;9.680;2023-04-29T07:22:51;13.90;94.50
298;DHT22;133;49.626;9.680;2023-04-29T07:25:17;13.90;94.50
298;DHT22;133;49.626;9.680;2023-04-29T07:27:43;14.00;93.80
298;DHT22;133;49.626;9.680;2023-04-29T07:30:09;14.10;94.20
298;DHT22;133;49.626;9.680;2023-04-29T07:32:35;14.20;94.20
298;DHT22;133;49.626;9.680;2023-04-29T07:35:01;14.30;92.20
298;DHT22;133;49.626;9.680;2023-04-29T07:37:27;14.30;88.40
298;DHT22;133;49.626;9.680;2023-04-29T07:39:52;14.20;87.80
298;DHT22;133;49.626;9.680;2023-04-29T07:42:18;14.00;87.70
298;DHT22;133;49.626;9.680;2023-04-29T07:44:44;13.80;88.90
298;DHT22;133;49.626;9.680;2023-04-29T07:47:10;13.70;88.50
298;DHT22;133;49.626;9.680;2023-04-29T07:49:37;13.60;87.80
298;DHT22;133;49.626;9.680;2023-04-29T07:52:04;13.50;88.20
298;DHT22;133;49.626;9.680;2023-04-29T07:54:30;13.40;88.90
298;DHT22;133;49.626;9.680;2023-04-29T07:56:57;13.30;89.00
298;DHT22;133;49.626;9.680;2023-04-29T07:59:23;13.40;89.30
298;DHT22;133;49.626;9.680;2023-04-29T08:01:48;13.50;89.10
298;DHT22;133;49.626;9.680;2023-04-29T08:04:14;13.50;88.50
298;DHT22;133;49.626;9.680;2023-04-29T08:06:40;13.50;88.50
298;DHT22;133;49.626;9.680;2023-04-29T08:09:12;13.60;88.10
298;DHT22;133;49.626;9.680;2023-04-29T08:11:37;13.60;87.90
298;DHT22;133;49.626;9.680;2023-04-29T08:14:04;13.70;88.30
298;DHT22;133;49.626;9.680;2023-04-29T08:16:30;13.70;87.80
298;DHT22;133;49.626;9.680;2023-04-29T08:18:56;13.80;88.20
298;DHT22;133;49.626;9.680;2023-04-29T08:21:22;13.80;87.50
298;DHT22;133;49.626;9.680;2023-04-29T08:23:48;13.80;85.70
298;DHT22;133;49.626;9.680;2023-04-29T08:26:14;13.60;86.20
298;DHT22;133;49.626;9.680;2023-04-29T08:28:40;13.60;86.60
298;DHT22;133;49.626;9.680;2023-04-29T08:31:06;13.60;86.40
298;DHT22;133;49.626;9.680;2023-04-29T08:33:35;13.70;85.80
298;DHT22;133;49.626;9.680;2023-04-29T08:36:02;13.80;85.70
298;DHT22;133;49.626;9.680;2023-04-29T08:38:29;13.80;85.70
298;DHT22;133;49.626;9.680;2023-04-29T08:40:55;13.70;85.40
298;DHT22;133;49.626;9.680;2023-04-29T08:43:21;13.70;85.50
298;DHT22;133;49.626;9.680;2023-04-29T08:45:50;13.80;85.40
298;DHT22;133;49.626;9.680;2023-04-29T08:48:19;13.90;84.80
298;DHT22;133;49.626;9.680;2023-04-29T08:50:48;14.00;85.00
298;DHT22;133;49.626;9.680;2023-04-29T08:53:14;14.10;84.00
298;DHT22;133;49.626;9.680;2023-04-29T08:55:44;14.10;83.80
298;DHT22;133;49.626;9.680;2023-04-29T08:58:11;14.00;83.60
298;DHT22;133;49.626;9.680;2023-04-29T09:00:39;14.10;83.10
298;DHT22;133;49.626;9.680;2023-04-29T09:03:26;14.10;82.80
298;DHT22;133;49.626;9.680;2023-04-29T09:05:53;14.20;83.10
298;DHT22;133;49.626;9.680;2023-04-29T09:08:21;14.20;83.10
298;DHT22;133;49.626;9.680;2023-04-29T09:10:49;14.30;82.40
298;DHT22;133;49.626;9.680;2023-04-29T09:13:25;14.40;82.90
298;DHT22;133;49.626;9.680;2023-04-29T09:15:51;14.50;82.90
298;DHT22;133;49.626;9.680;2023-04-29T09:18:48;14.70;83.70
298;DHT22;133;49.626;9.680;2023-04-29T09:21:25;14.90;81.70
298;DHT22;133;49.626;9.680;2023-04-29T09:23:59;15.00;81.50
298;DHT22;133;49.626;9.680;2023-04-29T09:26:25;15.10;81.30
298;DHT22;133;49.626;9.680;2023-04-29T09:29:11;15.20;80.70
298;DHT22;133;49.626;9.680;2023-04-29T09:31:38;15.20;80.60
298;DHT22;133;49.626;9.680;2023-04-29T09:34:04;15.20;80.60
298;DHT22;133;49.626;9.680;2023-04-29T09:36:44;15.40;80.80
298;DHT22;133;49.626;9.680;2023-04-29T09:44:22;15.90;80.00
298;DHT22;133;49.626;9.680;2023-04-29T09:47:28;16.00;78.00
298;DHT22;133;49.626;9.680;2023-04-29T09:50:10;16.30;78.50
298;DHT22;133;49.626;9.680;2023-04-29T09:52:40;16.20;76.70
298;DHT22;133;49.626;9.680;2023-04-29T09:55:09;16.00;77.10
298;DHT22;133;49.626;9.680;2023-04-29T09:57:43;16.00;76.70
298;DHT22;133;49.626;9.680;2023-04-29T10:00:11;16.00;77.30
298;DHT22;133;49.626;9.680;2023-04-29T10:02:46;15.70;76.50
298;DHT22;133;49.626;9.680;2023-04-29T10:05:13;15.90;78.20
298;DHT22;133;49.626;9.680;2023-04-29T10:07:46;15.90;76.00
298;DHT22;133;49.626;9.680;2023-04-29T10:10:14;15.80;76.60
298;DHT22;133;49.626;9.680;2023-04-29T10:12:41;15.70;77.70
298;DHT22;133;49.626;9.680;2023-04-29T10:17:45;15.80;78.70
298;DHT22;133;49.626;9.680;2023-04-29T10:20:22;16.10;76.80
298;DHT22;133;49.626;9.680;2023-04-29T10:22:50;16.60;75.90
298;DHT22;133;49.626;9.680;2023-04-29T10:25:18;16.80;74.70
298;DHT22;133;49.626;9.680;2023-04-29T10:27:44;17.00;73.50
298;DHT22;133;49.626;9.680;2023-04-29T10:30:15;17.30;73.40
298;DHT22;133;49.626;9.680;2023-04-29T10:32:46;17.40;73.60
298;DHT22;133;49.626;9.680;2023-04-29T10:35:14;17.40;72.90
298;DHT22;133;49.626;9.680;2023-04-29T10:37:41;17.30;73.50
298;DHT22;133;49.626;9.680;2023-04-29T10:40:28;17.10;72.90
298;DHT22;133;49.626;9.680;2023-04-29T10:42:56;17.00;73.00
298;DHT22;133;49.626;9.680;2023-04-29T10:53:15;16.60;74.90
298;DHT22;133;49.626;9.680;2023-04-29T10:55:41;16.50;74.00
298;DHT22;133;49.626;9.680;2023-04-29T11:01:40;16.60;75.10
298;DHT22;133;49.626;9.680;2023-04-29T11:04:06;16.70;74.70
298;DHT22;133;49.626;9.680;2023-04-29T11:09:10;16.90;74.60
298;DHT22;133;49.626;9.680;2023-04-29T11:12:03;16.80;75.10
298;DHT22;133;49.626;9.680;2023-04-29T11:17:08;16.70;73.80
298;DHT22;133;49.626;9.680;2023-04-29T11:19:38;16.60;73.60
298;DHT22;133;49.626;9.680;2023-04-29T11:22:25;16.30;74.10
298;DHT22;133;49.626;9.680;2023-04-29T11:25:02;16.10;74.80
298;DHT22;133;49.626;9.680;2023-04-29T11:27:38;15.80;75.20
298;DHT22;133;49.626;9.680;2023-04-29T11:30:07;15.90;75.40
298;DHT22;133;49.626;9.680;2023-04-29T11:32:35;16.00;75.80
298;DHT22;133;49.626;9.680;2023-04-29T11:35:14;16.10;75.30
298;DHT22;133;49.626;9.680;2023-04-29T11:37:41;15.90;75.20
298;DHT22;133;49.626;9.680;2023-04-29T11:40:07;15.70;74.70
298;DHT22;133;49.626;9.680;2023-04-29T11:42:35;15.80;75.00
298;DHT22;133;49.626;9.680;2023-04-29T11:45:01;15.90;75.10
298;DHT22;133;49.626;9.680;2023-04-29T11:47:30;16.00;75.30
298;DHT22;133;49.626;9.680;2023-04-29T11:50:06;16.20;76.20
298;DHT22;133;49.626;9.680;2023-04-29T11:52:34;16.00;75.10
298;DHT22;133;49.626;9.680;2023-04-29T11:55:01;15.90;75.00
298;DHT22;133;49.626;9.680;2023-04-29T11:57:27;15.80;74.70
298;DHT22;133;49.626;9.680;2023-04-29T11:59:53;15.80;74.70
298;DHT22;133;49.626;9.680;2023-04-29T12:02:32;15.70;74.80
298;DHT22;133;49.626;9.680;2023-04-29T12:05:05;15.60;75.10
298;DHT22;133;49.626;9.680;2023-04-29T12:07:32;15.40;75.50
298;DHT22;133;49.626;9.680;2023-04-29T12:09:57;15.40;75.30
298;DHT22;133;49.626;9.680;2023-04-29T12:12:24;15.40;75.80
298;DHT22;133;49.626;9.680;2023-04-29T12:14:50;15.40;75.80
298;DHT22;133;49.626;9.680;2023-04-29T12:17:16;15.40;76.90
298;DHT22;133;49.626;9.680;2023-04-29T12:20:00;15.50;76.10
298;DHT22;133;49.626;9.680;2023-04-29T12:22:32;15.60;76.60
298;DHT22;133;49.626;9.680;2023-04-29T12:24:58;15.80;76.40
298;DHT22;133;49.626;9.680;2023-04-29T12:27:25;15.80;75.00
298;DHT22;133;49.626;9.680;2023-04-29T12:29:51;15.70;74.50
298;DHT22;133;49.626;9.680;2023-04-29T12:32:21;15.80;75.20
298;DHT22;133;49.626;9.680;2023-04-29T12:34:46;16.00;74.70
298;DHT22;133;49.626;9.680;2023-04-29T12:37:14;16.10;74.10
298;DHT22;133;49.626;9.680;2023-04-29T12:39:41;16.20;74.50
298;DHT22;133;49.626;9.680;2023-04-29T12:42:14;16.10;74.20
298;DHT22;133;49.626;9.680;2023-04-29T12:44:43;16.30;73.70
298;DHT22;133;49.626;9.680;2023-04-29T12:47:10;16.30;73.60
298;DHT22;133;49.626;9.680;2023-04-29T12:49:36;16.20;73.90
298;DHT22;133;49.626;9.680;2023-04-29T12:52:03;16.20;74.10
298;DHT22;133;49.626;9.680;2023-04-29T12:54:29;16.20;73.60
298;DHT22;133;49.626;9.680;2023-04-29T12:56:55;16.10;73.40
298;DHT22;133;49.626;9.680;2023-04-29T12:59:21;15.90;73.80
298;DHT22;133;49.626;9.680;2023-04-29T13:01:47;15.90;74.20
298;DHT22;133;49.626;9.680;2023-04-29T13:04:13;15.90;74.30
298;DHT22;133;49.626;9.680;2023-04-29T13:06:38;16.00;74.90
298;DHT22;133;49.626;9.680;2023-04-29T13:09:06;16.10;74.30
298;DHT22;133;49.626;9.680;2023-04-29T13:11:35;16.10;74.40
298;DHT22;133;49.626;9.680;2023-04-29T13:14:01;16.10;74.40
298;DHT22;133;49.626;9.680;2023-04-29T13:16:27;16.20;74.40
298;DHT22;133;49.626;9.680;2023-04-29T13:18:53;16.40;73.90
298;DHT22;133;49.626;9.680;2023-04-29T13:21:18;16.40;74.10
298;DHT22;133;49.626;9.680;2023-04-29T13:23:44;16.40;74.30
298;DHT22;133;49.626;9.680;2023-04-29T13:26:10;16.40;74.50
298;DHT22;133;49.626;9.680;2023-04-29T13:28:36;16.40;74.30
298;DHT22;133;49.626;9.680;2023-04-29T13:31:02;16.60;74.00
298;DHT22;133;49.626;9.680;2023-04-29T13:33:28;16.70;73.30
298;DHT22;133;49.626;9.680;2023-04-29T13:35:53;17.10;72.10
298;DHT22;133;49.626;9.680;2023-04-29T13:38:19;17.30;72.10
298;DHT22;133;49.626;9.680;2023-04-29T13:40:47;17.70;71.10
298;DHT22;133;49.626;9.680;2023-04-29T13:43:13;17.90;68.80
298;DHT22;133;49.626;9.680;2023-04-29T13:45:39;18.00;68.30
298;DHT22;133;49.626;9.680;2023-04-29T13:48:05;18.30;67.90
298;DHT22;133;49.626;9.680;2023-04-29T13:50:30;18.30;68.40
298;DHT22;133;49.626;9.680;2023-04-29T13:53:02;18.30;67.70
298;DHT22;133;49.626;9.680;2023-04-29T13:55:28;18.10;68.40
298;DHT22;133;49.626;9.680;2023-04-29T13:57:54;17.90;69.60
298;DHT22;133;49.626;9.680;2023-04-29T14:00:19;17.80;69.30
298;DHT22;133;49.626;9.680;2023-04-29T14:02:47;17.70;69.40
298;DHT22;133;49.626;9.680;2023-04-29T14:05:13;17.50;70.50
298;DHT22;133;49.626;9.680;2023-04-29T14:07:39;17.40;70.60
298;DHT22;133;49.626;9.680;2023-04-29T14:10:04;17.40;70.90
298;DHT22;133;49.626;9.680;2023-04-29T14:12:30;17.50;71.10
298;DHT22;133;49.626;9.680;2023-04-29T14:14:56;17.60;70.90
298;DHT22;133;49.626;9.680;2023-04-29T14:17:22;17.80;69.70
298;DHT22;133;49.626;9.680;2023-04-29T14:19:50;17.90;68.80
298;DHT22;133;49.626;9.680;2023-04-29T14:22:16;17.80;68.60
298;DHT22;133;49.626;9.680;2023-04-29T14:24:42;17.90;68.30
298;DHT22;133;49.626;9.680;2023-04-29T14:27:07;18.20;68.00
298;DHT22;133;49.626;9.680;2023-04-29T14:29:33;18.20;67.90
298;DHT22;133;49.626;9.680;2023-04-29T14:31:58;18.00;68.00
298;DHT22;133;49.626;9.680;2023-04-29T14:34:24;18.10;68.10
298;DHT22;133;49.626;9.680;2023-04-29T14:36:50;18.10;68.10
298;DHT22;133;49.626;9.680;2023-04-29T14:39:15;17.90;68.80
298;DHT22;133;49.626;9.680;2023-04-29T14:41:41;17.80;69.50
298;DHT22;133;49.626;9.680;2023-04-29T14:44:06;17.80;68.90
298;DHT22;133;49.626;9.680;2023-04-29T14:46:32;17.60;70.10
298;DHT22;133;49.626;9.680;2023-04-29T14:48:58;17.50;70.10
298;DHT22;133;49.626;9.680;2023-04-29T14:51:23;17.20;71.80
298;DHT22;133;49.626;9.680;2023-04-29T14:53:50;17.00;72.20
298;DHT22;133;49.626;9.680;2023-04-29T14:56:16;16.80;73.60
298;DHT22;133;49.626;9.680;2023-04-29T14:58:42;16.70;74.70
298;DHT22;133;49.626;9.680;2023-04-29T15:01:08;16.40;75.70
298;DHT22;133;49.626;9.680;2023-04-29T15:03:34;16.20;76.20
298;DHT22;133;49.626;9.680;2023-04-29T15:06:02;16.20;76.60
298;DHT22;133;49.626;9.680;2023-04-29T15:08:29;15.90;77.50
298;DHT22;133;49.626;9.680;2023-04-29T15:10:55;16.00;77.40
298;DHT22;133;49.626;9.680;2023-04-29T15:13:20;15.90;77.80
298;DHT22;133;49.626;9.680;2023-04-29T15:15:47;15.80;78.20
298;DHT22;133;49.626;9.680;2023-04-29T15:18:13;15.80;78.10
298;DHT22;133;49.626;9.680;2023-04-29T15:20:41;15.70;78.10
298;DHT22;133;49.626;9.680;2023-04-29T15:23:07;15.80;78.20
298;DHT22;133;49.626;9.680;2023-04-29T15:25:33;15.80;78.40
298;DHT22;133;49.626;9.680;2023-04-29T15:28:00;15.80;78.40
298;DHT22;133;49.626;9.680;2023-04-29T15:30:29;15.80;78.30
298;DHT22;133;49.626;9.680;2023-04-29T15:32:54;15.70;78.20
298;DHT22;133;49.626;9.680;2023-04-29T15:35:20;15.70;77.40
298;DHT22;133;49.626;9.680;2023-04-29T15:37:45;15.60;78.50
298;DHT22;133;49.626;9.680;2023-04-29T15:40:11;15.70;78.50
298;DHT22;133;49.626;9.680;2023-04-29T15:42:37;15.70;78.30
298;DHT22;133;49.626;9.680;2023-04-29T15:45:06;15.70;77.70
298;DHT22;133;49.626;9.680;2023-04-29T15:47:35;15.70;78.10
298;DHT22;133;49.626;9.680;2023-04-29T15:50:00;15.70;77.80
298;DHT22;133;49.626;9.680;2023-04-29T15:52:26;15.80;78.30
298;DHT22;133;49.626;9.680;2023-04-29T15:54:52;15.80;78.70
298;DHT22;133;49.626;9.680;2023-04-29T15:57:17;15.70;78.10
298;DHT22;133;49.626;9.680;2023-04-29T15:59:43;15.80;77.30
298;DHT22;133;49.626;9.680;2023-04-29T16:02:08;15.70;77.70
298;DHT22;133;49.626;9.680;2023-04-29T16:04:36;15.50;78.10
298;DHT22;133;49.626;9.680;2023-04-29T16:07:02;15.70;77.60
298;DHT22;133;49.626;9.680;2023-04-29T16:09:31;15.70;78.50
298;DHT22;133;49.626;9.680;2023-04-29T16:11:56;15.80;78.50
298;DHT22;133;49.626;9.680;2023-04-29T16:14:22;15.80;78.50
298;DHT22;133;49.626;9.680;2023-04-29T16:16:49;15.70;78.10
298;DHT22;133;49.626;9.680;2023-04-29T16:19:14;15.80;78.20
298;DHT22;133;49.626;9.680;2023-04-29T16:21:40;15.80;78.00
298;DHT22;133;49.626;9.680;2023-04-29T16:24:13;15.70;77.40
298;DHT22;133;49.626;9.680;2023-04-29T16:26:39;15.60;77.00
298;DHT22;133;49.626;9.680;2023-04-29T16:29:05;15.70;77.60
298;DHT22;133;49.626;9.680;2023-04-29T16:31:31;15.70;77.60
298;DHT22;133;49.626;9.680;2023-04-29T16:33:56;15.60;78.10
298;DHT22;133;49.626;9.680;2023-04-29T16:36:23;15.60;77.70
298;DHT22;133;49.626;9.680;2023-04-29T16:38:49;15.70;77.70
298;DHT22;133;49.626;9.680;2023-04-29T16:41:15;15.70;78.00
298;DHT22;133;49.626;9.680;2023-04-29T16:43:41;15.80;77.80
298;DHT22;133;49.626;9.680;2023-04-29T16:46:13;15.80;77.70
298;DHT22;133;49.626;9.680;2023-04-29T16:48:39;15.80;77.40
298;DHT22;133;49.626;9.680;2023-04-29T16:51:05;15.80;77.70
298;DHT22;133;49.626;9.680;2023-04-29T16:53:31;15.80;77.60
298;DHT22;133;49.626;9.680;2023-04-29T16:55:56;15.80;77.60
298;DHT22;133;49.626;9.680;2023-04-29T16:58:22;15.70;77.80
298;DHT22;133;49.626;9.680;2023-04-29T17:00:48;15.60;77.90
298;DHT22;133;49.626;9.680;2023-04-29T17:03:14;15.60;77.60